Time;durP1;ratioP1;P1;durP2;ratioP2;P2;SDS_P1;SDS_P2;PMS_P1;PMS_P2;Temp;Humidity;BMP_temperature;BMP_pressure;BME280_temperature;BME280_humidity;BME280_pressure;Samples;Min_cycle;Max_cycle;Signal;HPM_P1;HPM_P2
2022/12/06 00:02:01;;;;;;;4.72;1.45;;;6.20;99.90;;;;;;5011135;28;20029;-73
2022/12/06 00:04:27;;;;;;;6.00;1.73;;;6.20;99.90;;;;;;5019467;28;20115;-73
2022/12/06 00:06:53;;;;;;;6.47;1.70;;;6.20;99.90;;;;;;5013326;28;20032;-74
2022/12/06 00:09:24;;;;;;;8.77;1.60;;;6.20;99.90;;;;;;4996362;28;20630;-73
2022/12/06 00:11:50;;;;;;;12.27;1.90;;;6.20;99.90;;;;;;5021585;28;20397;-73
2022/12/06 00:14:18;;;;;;;9.13;2.00;;;6.10;99.90;;;;;;5012067;28;20042;-73
2022/12/06 00:16:44;;;;;;;9.98;2.10;;;6.10;99.90;;;;;;5009818;28;20050;-76
2022/12/06 00:19:18;;;;;;;7.38;2.08;;;6.00;99.90;;;;;;5024337;28;20123;-73
2022/12/06 00:21:46;;;;;;;3.08;1.45;;;6.00;99.90;;;;;;5020949;28;20037;-73
2022/12/06 00:24:15;;;;;;;8.68;2.50;;;6.10;99.90;;;;;;5018793;28;20124;-74
2022/12/06 00:26:44;;;;;;;11.07;2.33;;;6.00;99.90;;;;;;4996990;28;20038;-73
2022/12/06 00:29:27;;;;;;;13.02;2.45;;;6.00;99.90;;;;;;4990542;28;20049;-73
2022/12/06 00:31:53;;;;;;;11.18;1.77;;;6.00;99.90;;;;;;4989791;28;20040;-73
2022/12/06 00:34:19;;;;;;;7.10;1.67;;;6.00;99.90;;;;;;4992948;28;20037;-73
2022/12/06 00:36:44;;;;;;;5.03;1.48;;;6.00;99.90;;;;;;5010717;28;20061;-73
2022/12/06 00:39:16;;;;;;;7.97;3.05;;;6.00;99.90;;;;;;5029437;28;20045;-73
2022/12/06 00:41:42;;;;;;;6.72;1.85;;;6.00;99.90;;;;;;5028793;28;20029;-73
2022/12/06 00:44:09;;;;;;;5.90;1.65;;;6.00;99.90;;;;;;5029298;28;20061;-74
2022/12/06 00:46:36;;;;;;;6.22;1.33;;;6.10;99.90;;;;;;5011596;28;20034;-72
2022/12/06 00:49:04;;;;;;;7.97;1.38;;;6.10;99.90;;;;;;5028243;28;20033;-74
2022/12/06 00:51:31;;;;;;;5.78;1.48;;;6.10;99.90;;;;;;5028673;28;20034;-73
2022/12/06 00:53:57;;;;;;;5.88;1.42;;;6.10;99.90;;;;;;5028374;28;20485;-74
2022/12/06 00:56:23;;;;;;;4.35;1.45;;;6.10;99.90;;;;;;5028763;28;20029;-73
2022/12/06 00:58:49;;;;;;;8.15;2.35;;;6.20;99.90;;;;;;5012344;28;20034;-73
2022/12/06 01:01:24;;;;;;;8.20;1.48;;;6.20;99.90;;;;;;5008869;28;20029;-74
2022/12/06 01:03:52;;;;;;;7.97;1.85;;;6.20;99.90;;;;;;5016449;28;20083;-75
2022/12/06 01:06:21;;;;;;;4.80;0.95;;;6.20;99.90;;;;;;5024501;28;20068;-74
2022/12/06 01:08:47;;;;;;;4.18;1.52;;;6.20;99.90;;;;;;4994572;28;20034;-72
2022/12/06 01:11:15;;;;;;;5.60;1.50;;;6.20;99.90;;;;;;4992330;28;20040;-73
2022/12/06 01:13:41;;;;;;;5.80;2.08;;;6.20;99.90;;;;;;5007713;28;20104;-74
2022/12/06 01:16:09;;;;;;;8.45;2.13;;;6.20;99.90;;;;;;5008967;28;20036;-73
2022/12/06 01:18:35;;;;;;;6.55;1.42;;;6.20;99.90;;;;;;4996632;28;20112;-73
2022/12/06 01:21:11;;;;;;;9.35;1.55;;;6.20;99.90;;;;;;5028510;28;20112;-73
2022/12/06 01:23:36;;;;;;;4.00;1.15;;;6.30;99.90;;;;;;5027413;28;20105;-74
2022/12/06 01:26:03;;;;;;;8.88;2.53;;;6.30;99.90;;;;;;5019217;28;20220;-73
2022/12/06 01:28:29;;;;;;;3.70;1.02;;;6.30;99.90;;;;;;5010297;28;20037;-73
2022/12/06 01:30:55;;;;;;;7.55;2.38;;;6.30;99.90;;;;;;5017560;28;20033;-73
2022/12/06 01:33:20;;;;;;;7.78;1.67;;;6.30;99.90;;;;;;5002816;28;20068;-73
2022/12/06 01:35:46;;;;;;;5.93;1.55;;;6.30;99.90;;;;;;5020042;28;20085;-73
2022/12/06 01:38:12;;;;;;;3.70;1.17;;;6.30;99.90;;;;;;4994900;28;20054;-73
2022/12/06 01:40:47;;;;;;;6.15;0.90;;;6.30;99.90;;;;;;5005792;28;20032;-75
2022/12/06 01:43:31;;;;;;;3.22;1.00;;;6.30;99.90;;;;;;5008838;28;20045;-73
2022/12/06 01:46:01;;;;;;;3.35;0.93;;;6.30;99.90;;;;;;5021215;28;20063;-74
2022/12/06 01:48:27;;;;;;;3.88;0.98;;;6.30;99.90;;;;;;5027657;28;20037;-76
2022/12/06 01:50:55;;;;;;;4.05;0.98;;;6.40;99.90;;;;;;5022854;28;20041;-73
2022/12/06 01:53:22;;;;;;;2.42;1.00;;;6.40;99.90;;;;;;5007893;28;20502;-73
2022/12/06 01:55:48;;;;;;;4.88;1.95;;;6.30;99.90;;;;;;5007813;28;20040;-73
2022/12/06 01:58:18;;;;;;;7.93;1.73;;;6.20;99.90;;;;;;5012186;28;20052;-73
2022/12/06 02:00:44;;;;;;;10.85;1.80;;;6.10;99.90;;;;;;5007343;28;20114;-73
2022/12/06 02:03:16;;;;;;;7.45;1.27;;;6.00;99.90;;;;;;5020654;28;20045;-74
2022/12/06 02:05:43;;;;;;;7.00;1.45;;;6.00;99.90;;;;;;5007098;28;20026;-74
2022/12/06 02:08:10;;;;;;;4.32;1.25;;;6.00;99.90;;;;;;5008468;28;20402;-73
2022/12/06 02:10:36;;;;;;;5.15;1.00;;;5.90;99.90;;;;;;4989494;28;20037;-74
2022/12/06 02:13:02;;;;;;;7.30;1.40;;;5.90;99.90;;;;;;5008001;28;20045;-73
2022/12/06 02:15:49;;;;;;;6.47;1.92;;;5.80;99.90;;;;;;5016580;28;20104;-73
2022/12/06 02:18:23;;;;;;;11.02;1.50;;;5.80;99.90;;;;;;4987726;28;20125;-72
2022/12/06 02:21:02;;;;;;;11.73;1.40;;;5.80;99.90;;;;;;4996586;28;20103;-74
2022/12/06 02:23:55;;;;;;;4.78;1.13;;;5.70;99.90;;;;;;5016847;28;20030;-72
2022/12/06 02:26:34;;;;;;;5.13;1.25;;;5.80;99.90;;;;;;4987872;28;20050;-74
2022/12/06 02:29:42;;;;;;;7.80;1.20;;;5.70;99.90;;;;;;4988574;28;20041;-75
2022/12/06 02:32:10;;;;;;;12.00;1.63;;;5.70;99.90;;;;;;5008704;28;20501;-74
2022/12/06 02:34:50;;;;;;;7.00;1.58;;;5.80;99.90;;;;;;5025883;28;20029;-73
2022/12/06 02:37:21;;;;;;;4.30;1.38;;;5.80;99.90;;;;;;5027900;28;20040;-75
2022/12/06 02:39:49;;;;;;;5.45;0.80;;;5.80;99.90;;;;;;5030889;28;20053;-75
2022/12/06 02:42:23;;;;;;;4.53;1.33;;;5.80;99.90;;;;;;5030742;28;20040;-74
2022/12/06 02:44:53;;;;;;;4.88;1.38;;;5.80;99.90;;;;;;5030864;28;20045;-72
2022/12/06 02:47:23;;;;;;;2.20;0.80;;;5.90;99.90;;;;;;5026271;28;20030;-73
2022/12/06 02:49:53;;;;;;;4.45;1.10;;;5.80;99.90;;;;;;5013230;28;20494;-74
2022/12/06 02:52:23;;;;;;;7.75;0.95;;;5.90;99.90;;;;;;5023131;28;20087;-73
2022/12/06 02:54:49;;;;;;;4.03;1.20;;;5.90;99.90;;;;;;5030287;28;20029;-73
2022/12/06 02:57:18;;;;;;;4.07;1.60;;;5.90;99.90;;;;;;5013078;28;20030;-75
2022/12/06 02:59:53;;;;;;;4.57;0.80;;;5.90;99.90;;;;;;5022493;28;20041;-74
2022/12/06 03:02:21;;;;;;;2.63;0.82;;;5.90;99.90;;;;;;5000028;28;20056;-73
2022/12/06 03:04:58;;;;;;;3.88;1.10;;;5.90;99.90;;;;;;5010786;28;20029;-73
2022/12/06 03:07:41;;;;;;;2.85;0.75;;;6.00;99.90;;;;;;5010989;28;20037;-73
2022/12/06 03:10:22;;;;;;;4.10;1.08;;;6.00;99.90;;;;;;5011189;28;20041;-73
2022/12/06 03:13:17;;;;;;;3.97;1.27;;;5.90;99.90;;;;;;5022575;28;20065;-72
2022/12/06 03:16:00;;;;;;;5.55;1.15;;;5.90;99.90;;;;;;5005502;28;20042;-73
2022/12/06 03:18:40;;;;;;;6.00;0.90;;;5.90;99.90;;;;;;5014653;28;20041;-74
2022/12/06 03:21:20;;;;;;;1.75;0.63;;;5.90;99.90;;;;;;5013941;28;20041;-74
2022/12/06 03:23:49;;;;;;;2.35;0.50;;;5.90;99.90;;;;;;5021070;28;20029;-73
2022/12/06 03:26:19;;;;;;;5.57;0.77;;;5.90;99.90;;;;;;4990039;28;20038;-73
2022/12/06 03:28:47;;;;;;;1.85;0.50;;;5.90;99.90;;;;;;4990983;28;20041;-73
2022/12/06 03:31:13;;;;;;;3.70;0.93;;;5.90;99.90;;;;;;4999692;28;20068;-73
2022/12/06 03:33:44;;;;;;;4.28;1.33;;;5.90;99.90;;;;;;5029472;28;20101;-74
2022/12/06 03:36:11;;;;;;;2.13;1.02;;;5.90;99.90;;;;;;5029333;28;20486;-73
2022/12/06 03:38:43;;;;;;;1.23;0.60;;;5.90;99.90;;;;;;5016834;28;20044;-74
2022/12/06 03:41:10;;;;;;;1.33;0.88;;;6.00;99.90;;;;;;5014576;28;20030;-74
2022/12/06 03:43:36;;;;;;;3.95;1.10;;;6.00;99.90;;;;;;5026870;28;20033;-72
2022/12/06 03:46:13;;;;;;;1.77;0.68;;;5.90;99.90;;;;;;5022367;28;20034;-72
2022/12/06 03:48:46;;;;;;;3.58;0.80;;;5.90;99.90;;;;;;5028570;28;20026;-73
2022/12/06 03:51:21;;;;;;;7.75;0.88;;;5.90;99.90;;;;;;4990883;28;20050;-73
2022/12/06 03:53:50;;;;;;;5.25;1.08;;;5.90;99.90;;;;;;4990185;28;20393;-73
2022/12/06 03:56:16;;;;;;;2.88;0.90;;;5.90;99.90;;;;;;4990302;28;20081;-73
2022/12/06 03:58:42;;;;;;;2.85;0.80;;;5.80;99.90;;;;;;4990537;28;20030;-73
2022/12/06 04:01:08;;;;;;;1.20;0.85;;;5.90;99.90;;;;;;4997921;28;20037;-74
2022/12/06 04:03:34;;;;;;;3.38;0.60;;;5.90;99.90;;;;;;5029021;28;20128;-73
2022/12/06 04:06:07;;;;;;;4.40;0.95;;;5.80;99.90;;;;;;5030371;28;20520;-73
2022/12/06 04:08:33;;;;;;;2.85;0.60;;;5.80;99.90;;;;;;5029249;28;20513;-73
2022/12/06 04:10:59;;;;;;;3.75;1.38;;;5.80;99.90;;;;;;5022952;28;20037;-73
2022/12/06 04:13:25;;;;;;;3.22;1.05;;;5.80;99.90;;;;;;5013480;28;20046;-74
2022/12/06 04:15:55;;;;;;;5.18;1.10;;;5.80;99.90;;;;;;5011001;28;20069;-73
2022/12/06 04:18:21;;;;;;;4.25;0.60;;;5.80;99.90;;;;;;5029296;28;20069;-73
2022/12/06 04:23:43;;;;;;;4.50;0.73;;;5.70;99.90;;;;;;4989489;28;20058;-73
2022/12/06 04:26:12;;;;;;;6.13;1.65;;;5.60;99.90;;;;;;4998136;28;20037;-74
2022/12/06 04:39:35;;;;;;;2.85;0.60;;;5.40;99.90;;;;;;4989586;28;20041;-73
2022/12/06 04:44:45;;;;;;;1.83;0.60;;;5.30;99.90;;;;;;5002286;28;20084;-73
2022/12/06 04:47:11;;;;;;;4.22;1.38;;;5.30;99.90;;;;;;4996344;28;20520;-72
2022/12/06 04:49:36;;;;;;;2.17;0.75;;;5.30;99.90;;;;;;5012132;28;20105;-73
2022/12/06 04:52:03;;;;;;;4.78;1.52;;;5.30;99.90;;;;;;5009508;28;20065;-73
2022/12/06 04:54:30;;;;;;;1.95;0.80;;;5.30;99.90;;;;;;5008453;28;20058;-73
2022/12/06 04:56:57;;;;;;;3.95;0.80;;;5.40;99.90;;;;;;4991167;28;20022;-73
2022/12/06 04:59:23;;;;;;;3.58;0.88;;;5.40;99.90;;;;;;5008299;28;20042;-74
2022/12/06 05:01:49;;;;;;;2.60;0.90;;;5.40;99.90;;;;;;5014336;28;20041;-73
2022/12/06 05:04:14;;;;;;;5.00;0.70;;;5.40;99.90;;;;;;5011111;28;20030;-73
2022/12/06 05:06:40;;;;;;;7.88;1.08;;;5.40;99.90;;;;;;5027722;28;20043;-74
2022/12/06 05:09:06;;;;;;;2.25;1.10;;;5.40;99.90;;;;;;5024945;28;20061;-73
2022/12/06 05:11:31;;;;;;;1.77;0.60;;;5.40;99.90;;;;;;5008768;28;20645;-73
2022/12/06 05:13:58;;;;;;;4.93;0.80;;;5.40;99.90;;;;;;5008427;28;20037;-73
2022/12/06 05:16:24;;;;;;;1.55;0.50;;;5.30;99.90;;;;;;5008409;28;20037;-73
2022/12/06 05:18:49;;;;;;;2.80;1.00;;;5.30;99.90;;;;;;5012367;28;20417;-73
2022/12/06 05:21:21;;;;;;;6.63;0.85;;;5.30;99.90;;;;;;5008937;28;20040;-73
2022/12/06 05:23:47;;;;;;;5.88;1.05;;;5.30;99.90;;;;;;5016985;28;20050;-72
2022/12/06 05:26:15;;;;;;;2.65;0.60;;;5.20;99.90;;;;;;5019947;28;20037;-74
2022/12/06 05:28:41;;;;;;;1.45;0.50;;;5.20;99.90;;;;;;5008006;28;20494;-74
2022/12/06 05:31:08;;;;;;;2.17;0.50;;;5.20;99.90;;;;;;5000367;28;20383;-74
2022/12/06 05:33:34;;;;;;;1.73;0.70;;;5.30;99.90;;;;;;5023806;28;20042;-76
2022/12/06 05:36:08;;;;;;;2.22;0.40;;;5.30;99.90;;;;;;5020208;28;20446;-73
2022/12/06 05:38:34;;;;;;;2.72;0.93;;;5.30;99.90;;;;;;5019965;28;20493;-73
2022/12/06 05:41:00;;;;;;;3.05;0.85;;;5.20;99.90;;;;;;5002863;28;20042;-73
2022/12/06 05:43:28;;;;;;;3.97;0.70;;;5.20;99.90;;;;;;4998821;28;20030;-73
2022/12/06 05:45:54;;;;;;;2.03;0.75;;;5.20;99.90;;;;;;5006446;28;20033;-73
2022/12/06 05:48:20;;;;;;;2.03;0.68;;;5.20;99.90;;;;;;5007890;28;20034;-73
2022/12/06 05:50:47;;;;;;;1.17;0.50;;;5.20;99.90;;;;;;4988875;28;20056;-75
2022/12/06 05:53:14;;;;;;;4.15;1.00;;;5.20;99.90;;;;;;4988565;28;20088;-73
2022/12/06 05:55:39;;;;;;;3.70;0.70;;;5.10;99.90;;;;;;5000571;28;20040;-75
2022/12/06 05:58:05;;;;;;;4.50;0.60;;;5.00;99.90;;;;;;5012475;28;20397;-73
2022/12/06 06:00:31;;;;;;;0.82;0.50;;;5.00;99.90;;;;;;5023797;28;20034;-75
2022/12/06 06:02:56;;;;;;;1.67;0.60;;;4.90;99.90;;;;;;5007681;28;20494;-74
2022/12/06 06:05:22;;;;;;;2.78;0.93;;;4.90;99.90;;;;;;5000927;28;20037;-75
2022/12/06 06:07:47;;;;;;;2.85;0.55;;;4.80;99.90;;;;;;5017134;28;20037;-73
2022/12/06 06:10:14;;;;;;;2.35;0.50;;;4.80;99.90;;;;;;5016635;28;20045;-74
2022/12/06 06:12:40;;;;;;;1.80;0.60;;;4.80;99.90;;;;;;5022742;28;20034;-73
2022/12/06 06:15:06;;;;;;;4.78;0.75;;;4.80;99.90;;;;;;5006750;28;20055;-73
2022/12/06 06:17:33;;;;;;;1.90;0.93;;;4.80;99.90;;;;;;5019524;28;20029;-75
2022/12/06 06:20:01;;;;;;;4.13;0.70;;;4.70;99.90;;;;;;5018024;28;20033;-74
2022/12/06 06:22:27;;;;;;;1.63;0.80;;;4.70;99.90;;;;;;5001201;28;20034;-73
2022/12/06 06:24:52;;;;;;;2.10;0.80;;;4.70;99.90;;;;;;5018818;28;20117;-73
2022/12/06 06:27:18;;;;;;;2.20;1.20;;;4.60;99.90;;;;;;5021882;28;20045;-73
2022/12/06 06:29:43;;;;;;;3.45;1.45;;;4.60;99.90;;;;;;5019381;28;20037;-74
2022/12/06 06:32:09;;;;;;;2.35;0.90;;;4.60;99.90;;;;;;5018523;28;20501;-73
2022/12/06 06:34:35;;;;;;;3.67;1.50;;;4.60;99.90;;;;;;5015840;28;20410;-75
2022/12/06 06:37:00;;;;;;;6.75;1.73;;;4.50;99.90;;;;;;5020760;28;20509;-74
2022/12/06 06:39:26;;;;;;;3.60;1.23;;;4.50;99.90;;;;;;5004615;28;20029;-74
2022/12/06 06:41:51;;;;;;;4.63;1.60;;;4.50;99.90;;;;;;5018559;28;20080;-73
2022/12/06 06:44:17;;;;;;;9.93;2.15;;;4.50;99.90;;;;;;5017965;28;20038;-73
2022/12/06 06:46:42;;;;;;;5.85;1.00;;;4.50;99.90;;;;;;5020088;28;20095;-73
2022/12/06 06:49:10;;;;;;;5.07;0.80;;;4.50;99.90;;;;;;5017453;28;20092;-73
2022/12/06 06:51:36;;;;;;;2.33;0.88;;;4.50;99.90;;;;;;5021597;28;20033;-73
2022/12/06 06:54:01;;;;;;;7.55;1.08;;;4.40;99.90;;;;;;5020648;28;20042;-73
2022/12/06 06:56:27;;;;;;;2.42;0.90;;;4.40;99.90;;;;;;5019903;28;20091;-74
2022/12/06 06:58:53;;;;;;;4.57;1.13;;;4.30;99.90;;;;;;5015128;28;20080;-74
2022/12/06 07:01:21;;;;;;;2.53;0.93;;;4.30;99.90;;;;;;5021739;28;20133;-74
2022/12/06 07:03:47;;;;;;;3.47;1.08;;;4.30;99.90;;;;;;5016229;28;20046;-73
2022/12/06 07:06:13;;;;;;;3.47;0.80;;;4.30;99.90;;;;;;5019767;28;20132;-74
2022/12/06 07:08:40;;;;;;;5.60;1.10;;;4.20;99.90;;;;;;5024609;28;20116;-74
2022/12/06 07:11:09;;;;;;;5.03;1.10;;;4.20;99.90;;;;;;5022102;28;20080;-74
2022/12/06 07:13:37;;;;;;;2.92;0.85;;;4.20;99.90;;;;;;5020568;28;20494;-73
2022/12/06 07:16:04;;;;;;;3.15;1.25;;;4.10;99.90;;;;;;5022314;28;20033;-73
2022/12/06 07:18:30;;;;;;;3.70;1.20;;;4.10;99.90;;;;;;5014593;28;20383;-73
2022/12/06 07:21:02;;;;;;;5.50;1.70;;;4.10;99.90;;;;;;5016989;28;20516;-73
2022/12/06 07:23:29;;;;;;;4.65;2.13;;;4.10;99.90;;;;;;5017224;28;20724;-73
2022/12/06 07:26:11;;;;;;;8.00;1.70;;;4.10;99.90;;;;;;5001366;28;20936;-74
2022/12/06 07:28:39;;;;;;;4.75;2.00;;;4.10;99.90;;;;;;5014661;28;20042;-74
2022/12/06 07:31:19;;;;;;;4.45;1.58;;;4.00;99.90;;;;;;5023562;28;20096;-73
2022/12/06 07:33:46;;;;;;;5.47;1.92;;;3.90;99.90;;;;;;5014239;28;20493;-73
2022/12/06 07:36:13;;;;;;;5.95;1.55;;;3.90;99.90;;;;;;5019486;28;20038;-75
2022/12/06 07:38:39;;;;;;;3.47;1.48;;;3.90;99.90;;;;;;5019125;28;20089;-73
2022/12/06 07:44:59;;;;;;;3.67;1.40;;;3.80;99.90;;;;;;5001803;28;20037;-73
2022/12/06 07:46:39;;;;;;;3.65;1.73;;;3.70;99.90;;;;;;5011071;28;20763;-73
2022/12/06 07:49:05;;;;;;;3.60;1.35;;;3.70;99.90;;;;;;5021585;28;20041;-73
2022/12/06 07:51:31;;;;;;;3.30;1.23;;;3.70;99.90;;;;;;5020967;28;20029;-73
2022/12/06 07:53:57;;;;;;;6.35;1.75;;;3.70;99.90;;;;;;5018175;28;20061;-73
2022/12/06 07:56:23;;;;;;;2.25;1.40;;;3.60;99.90;;;;;;5015641;28;20048;-73
2022/12/06 07:58:49;;;;;;;4.05;1.85;;;3.60;99.90;;;;;;5019095;28;20038;-73
2022/12/06 08:01:14;;;;;;;6.68;2.50;;;3.60;99.90;;;;;;5021534;28;20037;-74
2022/12/06 08:03:40;;;;;;;2.28;1.30;;;3.50;99.90;;;;;;5014874;28;20034;-73
2022/12/06 08:06:07;;;;;;;7.07;1.67;;;3.50;99.90;;;;;;5019181;28;20046;-73
2022/12/06 08:08:33;;;;;;;3.88;1.42;;;3.50;99.90;;;;;;5004460;28;20049;-75
2022/12/06 08:11:03;;;;;;;2.97;1.58;;;3.50;99.90;;;;;;5015865;28;20118;-75
2022/12/06 08:13:29;;;;;;;5.60;1.35;;;3.40;99.90;;;;;;5012469;28;20482;-73
2022/12/06 08:15:55;;;;;;;3.35;1.48;;;3.40;99.90;;;;;;5019203;28;20033;-73
2022/12/06 08:18:21;;;;;;;5.00;1.52;;;3.40;99.90;;;;;;5015025;28;20490;-73
2022/12/06 08:20:46;;;;;;;5.88;1.40;;;3.40;99.90;;;;;;5019446;28;20056;-73
2022/12/06 08:23:12;;;;;;;3.38;1.42;;;3.40;99.90;;;;;;5016592;28;20038;-73
2022/12/06 08:25:37;;;;;;;3.67;1.83;;;3.40;99.90;;;;;;5016613;28;20107;-74
2022/12/06 08:28:03;;;;;;;4.93;1.40;;;3.40;99.90;;;;;;5015647;28;20470;-73
2022/12/06 08:30:29;;;;;;;4.45;1.48;;;3.40;99.90;;;;;;5004343;28;20046;-73
2022/12/06 08:32:55;;;;;;;3.60;1.23;;;3.40;99.90;;;;;;5000334;28;20033;-73
2022/12/06 08:35:20;;;;;;;6.35;2.30;;;3.50;99.90;;;;;;5014349;28;20045;-73
2022/12/06 08:37:46;;;;;;;11.65;2.83;;;3.60;99.90;;;;;;5018678;28;20644;-73
2022/12/06 08:40:12;;;;;;;4.55;1.52;;;3.70;99.90;;;;;;5017091;28;20037;-72
2022/12/06 08:42:37;;;;;;;3.55;1.50;;;3.70;99.90;;;;;;4994709;28;20061;-75
2022/12/06 08:45:04;;;;;;;4.28;1.50;;;3.80;99.90;;;;;;5020851;28;20037;-75
2022/12/06 08:47:29;;;;;;;2.47;1.20;;;3.90;99.90;;;;;;5015109;28;20066;-73
2022/12/06 08:49:57;;;;;;;6.40;1.42;;;3.90;99.90;;;;;;5014319;28;20488;-73
2022/12/06 08:52:22;;;;;;;4.25;1.50;;;4.00;99.90;;;;;;5000317;28;20045;-73
2022/12/06 08:54:48;;;;;;;2.70;1.77;;;4.00;99.90;;;;;;5001094;28;20029;-73
2022/12/06 08:57:13;;;;;;;2.45;1.45;;;4.00;99.90;;;;;;5023089;28;20517;-73
2022/12/06 08:59:39;;;;;;;2.33;1.38;;;4.10;99.90;;;;;;5001609;28;20033;-73
2022/12/06 09:02:05;;;;;;;6.72;1.95;;;4.10;99.90;;;;;;5016775;28;20072;-74
2022/12/06 09:04:30;;;;;;;3.42;1.45;;;4.20;99.90;;;;;;5015274;28;20042;-74
2022/12/06 09:06:56;;;;;;;4.38;1.50;;;4.20;99.90;;;;;;5014762;28;20034;-73
2022/12/06 09:09:22;;;;;;;3.50;1.60;;;4.30;99.90;;;;;;5016527;28;20026;-73
2022/12/06 09:11:48;;;;;;;4.93;1.70;;;4.40;99.90;;;;;;5018224;28;20116;-74
2022/12/06 09:14:16;;;;;;;2.83;1.60;;;4.40;99.90;;;;;;5019773;28;20034;-74
2022/12/06 09:16:43;;;;;;;5.55;1.55;;;4.50;99.90;;;;;;5017645;28;20064;-73
2022/12/06 09:19:10;;;;;;;2.78;1.60;;;4.60;99.90;;;;;;5014585;28;20412;-72
2022/12/06 09:21:38;;;;;;;4.88;2.00;;;4.60;99.90;;;;;;5015568;28;20048;-73
2022/12/06 09:24:05;;;;;;;6.30;1.73;;;4.70;99.90;;;;;;5018799;28;20065;-73
2022/12/06 09:26:30;;;;;;;4.00;1.70;;;4.80;99.90;;;;;;5016735;28;20040;-73
2022/12/06 09:28:58;;;;;;;5.88;2.00;;;4.90;99.90;;;;;;5019465;28;20034;-72
2022/12/06 09:31:24;;;;;;;4.65;1.92;;;5.00;99.90;;;;;;5015710;28;20030;-73
2022/12/06 09:33:50;;;;;;;3.75;1.10;;;5.20;99.90;;;;;;5020334;28;20120;-74
2022/12/06 09:36:27;;;;;;;10.52;1.85;;;5.40;99.90;;;;;;5016746;28;20126;-73
2022/12/06 09:39:09;;;;;;;3.67;1.48;;;5.50;99.90;;;;;;5018140;28;20056;-73
2022/12/06 09:42:05;;;;;;;2.17;1.13;;;5.70;99.90;;;;;;4996104;28;20037;-75
2022/12/06 09:44:36;;;;;;;3.88;1.70;;;5.80;99.90;;;;;;5016916;28;20046;-73
2022/12/06 09:47:34;;;;;;;10.13;1.55;;;5.90;99.90;;;;;;5015515;28;20038;-74
2022/12/06 09:50:18;;;;;;;2.95;1.10;;;5.90;99.90;;;;;;5013665;28;20060;-72
2022/12/06 09:53:25;;;;;;;3.85;1.42;;;5.90;99.90;;;;;;5014251;28;20033;-74
2022/12/06 09:56:13;;;;;;;3.85;1.73;;;5.80;99.90;;;;;;5000098;28;20041;-75
2022/12/06 09:58:53;;;;;;;2.97;1.40;;;5.80;99.90;;;;;;5016599;28;20033;-75
2022/12/06 10:01:28;;;;;;;3.15;1.20;;;5.90;99.90;;;;;;5012354;28;20030;-74
2022/12/06 10:04:23;;;;;;;5.40;2.10;;;6.00;99.90;;;;;;5016793;28;20075;-74
2022/12/06 10:07:04;;;;;;;5.47;1.33;;;6.20;99.90;;;;;;5015150;28;20033;-73
2022/12/06 10:09:38;;;;;;;5.65;1.25;;;6.20;99.90;;;;;;5014765;28;20038;-73
2022/12/06 10:12:42;;;;;;;6.45;1.27;;;6.20;99.90;;;;;;5019126;28;20490;-74
2022/12/06 10:15:46;;;;;;;4.30;1.17;;;6.20;99.90;;;;;;5011793;28;20100;-75
2022/12/06 10:18:27;;;;;;;4.18;1.20;;;6.20;99.90;;;;;;5018015;28;20481;-73
2022/12/06 10:21:17;;;;;;;2.50;1.00;;;6.20;99.90;;;;;;5016785;28;20073;-74
2022/12/06 10:24:36;;;;;;;5.93;1.42;;;6.20;99.90;;;;;;5014321;28;20041;-73
2022/12/06 10:27:11;;;;;;;3.55;1.10;;;6.30;99.90;;;;;;4946577;28;20029;-73
2022/12/06 10:30:02;;;;;;;8.82;1.10;;;6.30;99.90;;;;;;5014201;28;20449;-73
2022/12/06 10:32:28;;;;;;;4.70;0.90;;;6.30;99.90;;;;;;5011003;28;20060;-73
2022/12/06 10:35:03;;;;;;;3.20;1.00;;;6.30;99.90;;;;;;5018482;28;20498;-76
2022/12/06 10:37:54;;;;;;;3.42;1.20;;;6.40;99.90;;;;;;5013398;28;20049;-72
2022/12/06 10:40:25;;;;;;;;;;;6.40;99.90;;;;;;4997238;28;20041;-74
2022/12/06 10:43:15;;;;;;;4.20;0.95;;;6.40;99.90;;;;;;5012766;28;20011;-73
2022/12/06 10:48:47;;;;;;;4.22;0.63;;;6.50;99.90;;;;;;5012865;28;20121;-74
2022/12/06 10:51:24;;;;;;;4.43;1.05;;;6.60;99.90;;;;;;4996504;28;20054;-73
2022/12/06 10:53:54;;;;;;;5.32;0.98;;;6.70;99.90;;;;;;5013537;28;20038;-74
2022/12/06 10:56:27;;;;;;;2.03;0.70;;;6.80;99.90;;;;;;5016763;28;20038;-73
2022/12/06 10:59:17;;;;;;;1.88;0.90;;;6.90;99.90;;;;;;5021730;28;20125;-74
2022/12/06 11:01:44;;;;;;;1.97;0.73;;;6.90;99.90;;;;;;5020062;28;20115;-74
2022/12/06 11:04:21;;;;;;;3.50;0.90;;;7.00;99.90;;;;;;5018411;28;20276;-74
2022/12/06 11:06:51;;;;;;;6.78;1.40;;;7.10;99.90;;;;;;5017824;28;20495;-73
2022/12/06 11:09:19;;;;;;;4.40;0.82;;;7.10;99.90;;;;;;5017327;28;20758;-73
2022/12/06 11:11:47;;;;;;;1.38;0.75;;;7.10;99.90;;;;;;4998951;28;20124;-75
2022/12/06 11:14:26;;;;;;;5.20;1.40;;;7.10;99.90;;;;;;5014036;28;20041;-74
2022/12/06 11:17:10;;;;;;;4.18;1.02;;;7.10;99.90;;;;;;5018321;28;20132;-73
2022/12/06 11:19:45;;;;;;;2.47;0.60;;;7.20;99.90;;;;;;5015730;28;20034;-74
2022/12/06 11:22:49;;;;;;;3.83;0.57;;;7.30;99.90;;;;;;5013375;28;20100;-73
2022/12/06 11:25:50;;;;;;;1.90;0.73;;;7.30;99.90;;;;;;5006343;28;20395;-75
2022/12/06 11:28:22;;;;;;;1.77;0.88;;;7.30;99.90;;;;;;5018637;28;20633;-73
2022/12/06 11:30:53;;;;;;;1.98;0.77;;;7.20;99.90;;;;;;4995228;28;20033;-73
2022/12/06 11:33:29;;;;;;;1.75;0.60;;;7.20;99.90;;;;;;5027433;28;20136;-72
2022/12/06 11:35:58;;;;;;;3.35;0.93;;;7.10;99.90;;;;;;5025673;28;20028;-75
2022/12/06 11:38:23;;;;;;;0.80;0.30;;;7.10;99.90;;;;;;5017017;28;20085;-74
2022/12/06 11:40:50;;;;;;;1.23;0.60;;;7.20;99.90;;;;;;5015721;28;20038;-73
2022/12/06 11:43:24;;;;;;;1.52;0.70;;;7.30;99.90;;;;;;5023583;28;20132;-74
2022/12/06 11:45:50;;;;;;;2.65;1.02;;;7.40;99.90;;;;;;5016640;28;20087;-74
2022/12/06 11:48:22;;;;;;;2.17;0.85;;;7.40;99.90;;;;;;5019354;28;20025;-72
2022/12/06 11:50:50;;;;;;;2.13;0.55;;;7.40;99.90;;;;;;5014601;28;20583;-74
2022/12/06 11:53:28;;;;;;;2.33;0.50;;;7.50;99.90;;;;;;5016804;28;20034;-73
2022/12/06 11:55:59;;;;;;;1.52;0.50;;;7.50;99.90;;;;;;5014074;28;20046;-73
2022/12/06 11:58:36;;;;;;;2.00;0.73;;;7.50;99.90;;;;;;5018037;28;20034;-74
2022/12/06 12:01:09;;;;;;;1.63;0.88;;;7.50;99.90;;;;;;5016148;28;20507;-74
2022/12/06 12:03:36;;;;;;;1.65;0.63;;;7.50;99.90;;;;;;5021626;28;20033;-74
2022/12/06 12:06:22;;;;;;;3.83;1.40;;;7.60;99.90;;;;;;5020322;28;20033;-73
2022/12/06 12:08:58;;;;;;;4.22;0.80;;;7.60;99.90;;;;;;5015370;28;20047;-73
2022/12/06 12:11:26;;;;;;;1.55;0.50;;;7.60;99.90;;;;;;5014759;28;20100;-73
2022/12/06 12:13:57;;;;;;;1.85;0.77;;;7.60;99.90;;;;;;5019361;28;20046;-73
2022/12/06 12:16:31;;;;;;;2.67;0.93;;;7.70;99.90;;;;;;5002795;28;20377;-75
2022/12/06 12:18:58;;;;;;;4.75;0.73;;;7.80;99.90;;;;;;5003022;28;20037;-73
2022/12/06 12:21:36;;;;;;;3.85;0.77;;;7.80;99.90;;;;;;5012512;28;20569;-74
2022/12/06 12:24:03;;;;;;;6.63;0.52;;;7.80;99.90;;;;;;5020843;28;20030;-73
2022/12/06 12:26:37;;;;;;;5.40;1.58;;;7.80;99.90;;;;;;5020516;28;20657;-73
2022/12/06 12:29:06;;;;;;;2.40;0.60;;;7.80;99.90;;;;;;5020659;28;20061;-74
2022/12/06 12:31:43;;;;;;;2.30;0.70;;;7.80;99.90;;;;;;5011945;28;20052;-73
2022/12/06 12:34:29;;;;;;;1.08;0.45;;;7.90;99.90;;;;;;5014428;28;20062;-72
2022/12/06 12:37:00;;;;;;;1.90;0.93;;;7.90;99.90;;;;;;5016724;28;20053;-73
2022/12/06 12:39:39;;;;;;;4.78;0.50;;;7.90;99.90;;;;;;5017960;28;20398;-74
2022/12/06 12:42:28;;;;;;;1.77;0.40;;;7.90;99.90;;;;;;5021267;28;20406;-73
2022/12/06 12:44:58;;;;;;;6.05;0.63;;;8.00;99.90;;;;;;5019342;28;20033;-72
2022/12/06 12:47:24;;;;;;;2.40;0.55;;;7.90;99.90;;;;;;5018379;28;20124;-74
2022/12/06 12:50:19;;;;;;;1.40;0.30;;;7.90;99.90;;;;;;5019854;28;20124;-73
2022/12/06 12:52:46;;;;;;;1.23;0.47;;;7.90;99.90;;;;;;5013069;28;20056;-73
2022/12/06 12:55:11;;;;;;;1.25;0.40;;;7.90;99.90;;;;;;5017989;28;20048;-73
2022/12/06 12:57:37;;;;;;;1.40;0.40;;;7.90;99.90;;;;;;5003973;28;20037;-74
2022/12/06 13:00:04;;;;;;;1.55;0.47;;;8.00;99.90;;;;;;5015241;28;20041;-73
2022/12/06 13:02:30;;;;;;;1.77;0.50;;;8.00;99.90;;;;;;5019667;28;20069;-73
2022/12/06 13:05:01;;;;;;;2.13;0.45;;;7.90;99.90;;;;;;5015059;28;20029;-73
2022/12/06 13:07:32;;;;;;;1.80;0.73;;;7.90;99.90;;;;;;5016859;28;20038;-73
2022/12/06 13:10:00;;;;;;;;;;;7.90;99.90;;;;;;5015005;28;20654;-73
2022/12/06 13:12:33;;;;;;;1.88;0.80;;;7.90;99.90;;;;;;5010327;28;20514;-73
2022/12/06 13:15:17;;;;;;;3.15;0.80;;;7.90;99.90;;;;;;5014722;28;20037;-73
2022/12/06 13:17:48;;;;;;;3.50;1.33;;;8.00;99.90;;;;;;5016787;28;20041;-73
2022/12/06 13:20:35;;;;;;;2.45;0.93;;;8.00;99.90;;;;;;5018372;28;20032;-73
2022/12/06 13:23:08;;;;;;;3.42;0.90;;;8.00;99.90;;;;;;4999388;28;20049;-74
2022/12/06 13:25:35;;;;;;;5.05;0.82;;;8.00;99.90;;;;;;5020088;28;20037;-74
2022/12/06 13:28:03;;;;;;;3.58;0.77;;;8.00;99.90;;;;;;5019930;28;20622;-74
2022/12/06 13:30:31;;;;;;;2.15;0.60;;;7.90;99.90;;;;;;4999962;28;20033;-74
2022/12/06 13:33:01;;;;;;;2.03;0.88;;;7.90;99.90;;;;;;5024691;28;20037;-73
2022/12/06 13:35:50;;;;;;;4.43;0.98;;;7.90;99.90;;;;;;5014101;28;20116;-73
2022/12/06 13:38:18;;;;;;;4.90;1.58;;;7.90;99.90;;;;;;5010121;28;20038;-73
2022/12/06 13:40:45;;;;;;;5.32;1.10;;;7.90;99.90;;;;;;5005764;28;20033;-73